sensor_id;sensor_type;location;lat;lon;timestamp;temperature;humidity
32502;DHT22;18952;52.516;13.460;2022-10-15T00:00:11;12.60;99.90
32502;DHT22;18952;52.516;13.460;2022-10-15T00:02:38;12.60;99.90
32502;DHT22;18952;52.516;13.460;2022-10-15T00:05:06;12.70;99.90
32502;DHT22;18952;52.516;13.460;2022-10-15T00:07:33;12.70;99.90
32502;DHT22;18952;52.516;13.460;2022-10-15T00:10:00;12.70;99.90
32502;DHT22;18952;52.516;13.460;2022-10-15T00:12:28;12.70;99.90
32502;DHT22;18952;52.516;13.460;2022-10-15T00:14:55;12.70;99.90
32502;DHT22;18952;52.516;13.460;2022-10-15T00:17:23;12.70;99.90
32502;DHT22;18952;52.516;13.460;2022-10-15T00:19:50;12.60;99.90
32502;DHT22;18952;52.516;13.460;2022-10-15T00:22:18;12.70;99.90
32502;DHT22;18952;52.516;13.460;2022-10-15T00:24:45;12.70;99.90
32502;DHT22;18952;52.516;13.460;2022-10-15T00:27:12;12.60;99.90
32502;DHT22;18952;52.516;13.460;2022-10-15T00:29:39;12.60;99.90
32502;DHT22;18952;52.516;13.460;2022-10-15T00:32:09;12.60;99.90
32502;DHT22;18952;52.516;13.460;2022-10-15T00:34:39;12.60;99.90
32502;DHT22;18952;52.516;13.460;2022-10-15T00:37:09;12.60;99.90
32502;DHT22;18952;52.516;13.460;2022-10-15T00:39:40;12.60;99.90
32502;DHT22;18952;52.516;13.460;2022-10-15T00:42:09;12.60;99.90
32502;DHT22;18952;52.516;13.460;2022-10-15T00:44:48;12.60;99.90
32502;DHT22;18952;52.516;13.460;2022-10-15T00:47:25;12.60;99.90
32502;DHT22;18952;52.516;13.460;2022-10-15T00:50:00;12.60;99.90
32502;DHT22;18952;52.516;13.460;2022-10-15T00:55:17;12.60;99.90
32502;DHT22;18952;52.516;13.460;2022-10-15T00:57:47;12.70;99.90
32502;DHT22;18952;52.516;13.460;2022-10-15T01:00:16;12.60;99.90
32502;DHT22;18952;52.516;13.460;2022-10-15T01:02:44;12.60;99.90
32502;DHT22;18952;52.516;13.460;2022-10-15T01:05:12;12.60;99.90
32502;DHT22;18952;52.516;13.460;2022-10-15T01:07:40;12.60;99.90
32502;DHT22;18952;52.516;13.460;2022-10-15T01:10:08;12.60;99.90
32502;DHT22;18952;52.516;13.460;2022-10-15T01:13:10;12.60;99.90
32502;DHT22;18952;52.516;13.460;2022-10-15T01:15:48;12.60;99.90
32502;DHT22;18952;52.516;13.460;2022-10-15T01:18:21;12.60;99.90
32502;DHT22;18952;52.516;13.460;2022-10-15T01:21:15;12.50;99.90
32502;DHT22;18952;52.516;13.460;2022-10-15T01:26:43;12.60;99.90
32502;DHT22;18952;52.516;13.460;2022-10-15T01:32:10;12.50;99.90
32502;DHT22;18952;52.516;13.460;2022-10-15T01:37:50;12.50;99.90
32502;DHT22;18952;52.516;13.460;2022-10-15T01:40:28;12.50;99.90
32502;DHT22;18952;52.516;13.460;2022-10-15T01:42:59;12.50;99.90
32502;DHT22;18952;52.516;13.460;2022-10-15T01:45:37;12.50;99.90
32502;DHT22;18952;52.516;13.460;2022-10-15T01:48:10;12.50;99.90
32502;DHT22;18952;52.516;13.460;2022-10-15T01:50:44;12.50;99.90
32502;DHT22;18952;52.516;13.460;2022-10-15T01:53:17;12.50;99.90
32502;DHT22;18952;52.516;13.460;2022-10-15T01:55:46;12.50;99.90
32502;DHT22;18952;52.516;13.460;2022-10-15T01:58:16;12.40;99.90
32502;DHT22;18952;52.516;13.460;2022-10-15T02:00:43;12.50;99.90
32502;DHT22;18952;52.516;13.460;2022-10-15T02:03:10;12.50;99.90
32502;DHT22;18952;52.516;13.460;2022-10-15T02:06:06;12.50;99.90
32502;DHT22;18952;52.516;13.460;2022-10-15T02:09:00;12.50;99.90
32502;DHT22;18952;52.516;13.460;2022-10-15T02:11:28;12.50;99.90
32502;DHT22;18952;52.516;13.460;2022-10-15T02:14:03;12.50;99.90
32502;DHT22;18952;52.516;13.460;2022-10-15T02:16:43;12.50;99.90
32502;DHT22;18952;52.516;13.460;2022-10-15T02:19:14;12.50;99.90
32502;DHT22;18952;52.516;13.460;2022-10-15T02:22:00;12.50;99.90
32502;DHT22;18952;52.516;13.460;2022-10-15T02:24:37;12.50;99.90
32502;DHT22;18952;52.516;13.460;2022-10-15T02:27:24;12.50;99.90
32502;DHT22;18952;52.516;13.460;2022-10-15T02:29:54;12.50;99.90
32502;DHT22;18952;52.516;13.460;2022-10-15T02:32:43;12.50;99.90
32502;DHT22;18952;52.516;13.460;2022-10-15T02:35:11;12.50;99.90
32502;DHT22;18952;52.516;13.460;2022-10-15T02:37:42;12.50;99.90
32502;DHT22;18952;52.516;13.460;2022-10-15T02:40:10;12.50;99.90
32502;DHT22;18952;52.516;13.460;2022-10-15T02:42:37;12.50;99.90
32502;DHT22;18952;52.516;13.460;2022-10-15T02:45:04;12.50;99.90
32502;DHT22;18952;52.516;13.460;2022-10-15T02:47:31;12.50;99.90
32502;DHT22;18952;52.516;13.460;2022-10-15T02:49:58;12.50;99.90
32502;DHT22;18952;52.516;13.460;2022-10-15T02:52:24;12.50;99.90
32502;DHT22;18952;52.516;13.460;2022-10-15T02:54:51;12.50;99.90
32502;DHT22;18952;52.516;13.460;2022-10-15T02:57:18;12.60;99.90
32502;DHT22;18952;52.516;13.460;2022-10-15T02:59:45;12.50;99.90
32502;DHT22;18952;52.516;13.460;2022-10-15T03:02:12;12.60;99.90
32502;DHT22;18952;52.516;13.460;2022-10-15T03:04:44;12.60;99.90
32502;DHT22;18952;52.516;13.460;2022-10-15T03:07:11;12.60;99.90
32502;DHT22;18952;52.516;13.460;2022-10-15T03:09:39;12.60;99.90
32502;DHT22;18952;52.516;13.460;2022-10-15T03:12:08;12.60;99.90
32502;DHT22;18952;52.516;13.460;2022-10-15T03:14:37;12.50;99.90
32502;DHT22;18952;52.516;13.460;2022-10-15T03:17:05;12.50;99.90
32502;DHT22;18952;52.516;13.460;2022-10-15T03:19:37;12.60;99.90
32502;DHT22;18952;52.516;13.460;2022-10-15T03:22:03;12.60;99.90
32502;DHT22;18952;52.516;13.460;2022-10-15T03:24:32;12.60;99.90
32502;DHT22;18952;52.516;13.460;2022-10-15T03:26:59;12.60;99.90
32502;DHT22;18952;52.516;13.460;2022-10-15T03:29:28;12.60;99.90
32502;DHT22;18952;52.516;13.460;2022-10-15T03:31:57;12.60;99.90
32502;DHT22;18952;52.516;13.460;2022-10-15T03:34:24;12.60;99.90
32502;DHT22;18952;52.516;13.460;2022-10-15T03:36:50;12.60;99.90
32502;DHT22;18952;52.516;13.460;2022-10-15T03:39:17;12.60;99.90
32502;DHT22;18952;52.516;13.460;2022-10-15T03:41:44;12.50;99.90
32502;DHT22;18952;52.516;13.460;2022-10-15T03:44:10;12.50;99.90
32502;DHT22;18952;52.516;13.460;2022-10-15T03:46:37;12.50;99.90
32502;DHT22;18952;52.516;13.460;2022-10-15T03:49:04;12.40;99.90
32502;DHT22;18952;52.516;13.460;2022-10-15T03:51:31;12.40;99.90
32502;DHT22;18952;52.516;13.460;2022-10-15T03:53:57;12.40;99.90
32502;DHT22;18952;52.516;13.460;2022-10-15T03:56:24;12.40;99.90
32502;DHT22;18952;52.516;13.460;2022-10-15T03:58:51;12.30;99.90
32502;DHT22;18952;52.516;13.460;2022-10-15T04:01:18;12.40;99.90
32502;DHT22;18952;52.516;13.460;2022-10-15T04:03:45;12.40;99.90
32502;DHT22;18952;52.516;13.460;2022-10-15T04:06:12;12.40;99.90
32502;DHT22;18952;52.516;13.460;2022-10-15T04:08:40;12.50;99.90
32502;DHT22;18952;52.516;13.460;2022-10-15T04:11:07;12.50;99.90
32502;DHT22;18952;52.516;13.460;2022-10-15T04:13:34;12.50;99.90
32502;DHT22;18952;52.516;13.460;2022-10-15T04:16:04;12.50;99.90
32502;DHT22;18952;52.516;13.460;2022-10-15T04:18:31;12.50;99.90
32502;DHT22;18952;52.516;13.460;2022-10-15T04:20:59;12.50;99.90
32502;DHT22;18952;52.516;13.460;2022-10-15T04:23:26;12.50;99.90
32502;DHT22;18952;52.516;13.460;2022-10-15T04:25:58;12.40;99.90
32502;DHT22;18952;52.516;13.460;2022-10-15T04:28:28;12.40;99.90
32502;DHT22;18952;52.516;13.460;2022-10-15T04:30:59;12.40;99.90
32502;DHT22;18952;52.516;13.460;2022-10-15T04:33:28;12.40;99.90
32502;DHT22;18952;52.516;13.460;2022-10-15T04:36:07;12.40;99.90
32502;DHT22;18952;52.516;13.460;2022-10-15T04:38:38;12.50;99.90
32502;DHT22;18952;52.516;13.460;2022-10-15T04:41:07;12.50;99.90
32502;DHT22;18952;52.516;13.460;2022-10-15T04:43:36;12.40;99.90
32502;DHT22;18952;52.516;13.460;2022-10-15T04:46:04;12.40;99.90
32502;DHT22;18952;52.516;13.460;2022-10-15T04:48:34;12.50;99.90
32502;DHT22;18952;52.516;13.460;2022-10-15T04:51:12;12.40;99.90
32502;DHT22;18952;52.516;13.460;2022-10-15T04:53:41;12.50;99.90
32502;DHT22;18952;52.516;13.460;2022-10-15T04:56:13;12.50;99.90
32502;DHT22;18952;52.516;13.460;2022-10-15T04:58:41;12.50;99.90
32502;DHT22;18952;52.516;13.460;2022-10-15T05:01:11;12.50;99.90
32502;DHT22;18952;52.516;13.460;2022-10-15T05:03:41;12.50;99.90
32502;DHT22;18952;52.516;13.460;2022-10-15T05:06:13;12.50;99.90
32502;DHT22;18952;52.516;13.460;2022-10-15T05:08:40;12.50;99.90
32502;DHT22;18952;52.516;13.460;2022-10-15T05:11:10;12.50;99.90
32502;DHT22;18952;52.516;13.460;2022-10-15T05:13:38;12.50;99.90
32502;DHT22;18952;52.516;13.460;2022-10-15T05:16:15;12.50;99.90
32502;DHT22;18952;52.516;13.460;2022-10-15T05:18:45;12.50;99.90
32502;DHT22;18952;52.516;13.460;2022-10-15T05:21:12;12.50;99.90
32502;DHT22;18952;52.516;13.460;2022-10-15T05:23:40;12.50;99.90
32502;DHT22;18952;52.516;13.460;2022-10-15T05:26:11;12.50;99.90
32502;DHT22;18952;52.516;13.460;2022-10-15T05:28:40;12.50;99.90
32502;DHT22;18952;52.516;13.460;2022-10-15T05:31:10;12.50;99.90
32502;DHT22;18952;52.516;13.460;2022-10-15T05:33:44;12.50;99.90
32502;DHT22;18952;52.516;13.460;2022-10-15T05:36:13;12.50;99.90
32502;DHT22;18952;52.516;13.460;2022-10-15T05:38:43;12.50;99.90
32502;DHT22;18952;52.516;13.460;2022-10-15T05:41:09;12.50;99.90
32502;DHT22;18952;52.516;13.460;2022-10-15T05:43:37;12.50;99.90
32502;DHT22;18952;52.516;13.460;2022-10-15T05:46:08;12.50;99.90
32502;DHT22;18952;52.516;13.460;2022-10-15T05:48:36;12.50;99.90
32502;DHT22;18952;52.516;13.460;2022-10-15T05:51:05;12.50;99.90
32502;DHT22;18952;52.516;13.460;2022-10-15T05:53:33;12.50;99.90
32502;DHT22;18952;52.516;13.460;2022-10-15T05:56:02;12.50;99.90
32502;DHT22;18952;52.516;13.460;2022-10-15T05:58:32;12.60;99.90
32502;DHT22;18952;52.516;13.460;2022-10-15T06:01:08;12.60;99.90
32502;DHT22;18952;52.516;13.460;2022-10-15T06:03:37;12.70;99.90
32502;DHT22;18952;52.516;13.460;2022-10-15T06:06:04;12.70;99.90
32502;DHT22;18952;52.516;13.460;2022-10-15T06:08:32;12.70;99.90
32502;DHT22;18952;52.516;13.460;2022-10-15T06:11:02;12.70;99.90
32502;DHT22;18952;52.516;13.460;2022-10-15T06:13:40;12.70;99.90
32502;DHT22;18952;52.516;13.460;2022-10-15T06:16:08;12.80;99.90
32502;DHT22;18952;52.516;13.460;2022-10-15T06:18:36;12.80;99.90
32502;DHT22;18952;52.516;13.460;2022-10-15T06:21:03;12.80;99.90
32502;DHT22;18952;52.516;13.460;2022-10-15T06:23:30;12.80;99.90
32502;DHT22;18952;52.516;13.460;2022-10-15T06:26:04;12.90;99.90
32502;DHT22;18952;52.516;13.460;2022-10-15T06:28:32;12.90;99.90
32502;DHT22;18952;52.516;13.460;2022-10-15T06:30:59;12.90;99.90
32502;DHT22;18952;52.516;13.460;2022-10-15T06:33:27;12.90;99.90
32502;DHT22;18952;52.516;13.460;2022-10-15T06:35:54;12.90;99.90
32502;DHT22;18952;52.516;13.460;2022-10-15T06:38:21;13.00;99.90
32502;DHT22;18952;52.516;13.460;2022-10-15T06:40:47;13.00;99.90
32502;DHT22;18952;52.516;13.460;2022-10-15T06:43:14;13.00;99.90
32502;DHT22;18952;52.516;13.460;2022-10-15T06:45:41;13.00;99.90
32502;DHT22;18952;52.516;13.460;2022-10-15T06:48:08;13.00;99.90
32502;DHT22;18952;52.516;13.460;2022-10-15T06:50:37;13.00;99.90
32502;DHT22;18952;52.516;13.460;2022-10-15T06:53:04;13.00;99.90
32502;DHT22;18952;52.516;13.460;2022-10-15T06:55:32;13.00;99.90
32502;DHT22;18952;52.516;13.460;2022-10-15T06:57:58;13.00;99.90
32502;DHT22;18952;52.516;13.460;2022-10-15T07:00:26;13.00;99.90
32502;DHT22;18952;52.516;13.460;2022-10-15T07:02:53;12.90;99.90
32502;DHT22;18952;52.516;13.460;2022-10-15T07:05:19;13.00;99.90
32502;DHT22;18952;52.516;13.460;2022-10-15T07:07:53;12.90;99.90
32502;DHT22;18952;52.516;13.460;2022-10-15T07:10:21;12.90;99.90
32502;DHT22;18952;52.516;13.460;2022-10-15T07:12:48;12.80;99.90
32502;DHT22;18952;52.516;13.460;2022-10-15T07:15:15;12.80;99.90
32502;DHT22;18952;52.516;13.460;2022-10-15T07:17:49;12.90;99.90
32502;DHT22;18952;52.516;13.460;2022-10-15T07:20:17;13.00;99.90
32502;DHT22;18952;52.516;13.460;2022-10-15T07:22:48;13.00;99.90
32502;DHT22;18952;52.516;13.460;2022-10-15T07:25:15;13.10;99.90
32502;DHT22;18952;52.516;13.460;2022-10-15T07:27:43;13.10;99.90
32502;DHT22;18952;52.516;13.460;2022-10-15T07:30:10;13.10;99.90
32502;DHT22;18952;52.516;13.460;2022-10-15T07:32:38;13.20;99.90
32502;DHT22;18952;52.516;13.460;2022-10-15T07:35:06;13.20;99.90
32502;DHT22;18952;52.516;13.460;2022-10-15T07:37:33;13.30;99.90
32502;DHT22;18952;52.516;13.460;2022-10-15T07:40:02;13.40;99.90
32502;DHT22;18952;52.516;13.460;2022-10-15T07:42:28;13.50;99.90
32502;DHT22;18952;52.516;13.460;2022-10-15T07:44:55;13.50;99.90
32502;DHT22;18952;52.516;13.460;2022-10-15T07:47:25;13.50;99.90
32502;DHT22;18952;52.516;13.460;2022-10-15T07:49:53;13.50;99.90
32502;DHT22;18952;52.516;13.460;2022-10-15T07:52:20;13.50;99.90
32502;DHT22;18952;52.516;13.460;2022-10-15T07:54:50;13.50;99.90
32502;DHT22;18952;52.516;13.460;2022-10-15T07:57:19;13.50;99.90
32502;DHT22;18952;52.516;13.460;2022-10-15T07:59:46;13.50;99.90
32502;DHT22;18952;52.516;13.460;2022-10-15T08:02:16;13.60;99.90
32502;DHT22;18952;52.516;13.460;2022-10-15T08:04:43;13.50;99.90
32502;DHT22;18952;52.516;13.460;2022-10-15T08:07:10;13.50;99.90
32502;DHT22;18952;52.516;13.460;2022-10-15T08:09:37;13.50;99.90
32502;DHT22;18952;52.516;13.460;2022-10-15T08:12:04;13.50;99.90
32502;DHT22;18952;52.516;13.460;2022-10-15T08:14:31;13.40;99.90
32502;DHT22;18952;52.516;13.460;2022-10-15T08:16:58;13.50;99.90
32502;DHT22;18952;52.516;13.460;2022-10-15T08:19:26;13.50;99.90
32502;DHT22;18952;52.516;13.460;2022-10-15T08:21:53;13.50;99.90
32502;DHT22;18952;52.516;13.460;2022-10-15T08:24:19;13.60;99.90
32502;DHT22;18952;52.516;13.460;2022-10-15T08:26:46;13.60;99.90
32502;DHT22;18952;52.516;13.460;2022-10-15T08:29:13;13.70;99.90
32502;DHT22;18952;52.516;13.460;2022-10-15T08:31:41;13.80;99.90
32502;DHT22;18952;52.516;13.460;2022-10-15T08:34:08;13.80;99.90
32502;DHT22;18952;52.516;13.460;2022-10-15T08:36:35;13.90;99.90
32502;DHT22;18952;52.516;13.460;2022-10-15T08:39:01;13.90;99.90
32502;DHT22;18952;52.516;13.460;2022-10-15T08:44:01;14.00;99.90
32502;DHT22;18952;52.516;13.460;2022-10-15T08:49:04;14.20;99.90
32502;DHT22;18952;52.516;13.460;2022-10-15T08:51:41;14.30;99.90
32502;DHT22;18952;52.516;13.460;2022-10-15T08:54:18;14.50;99.90
32502;DHT22;18952;52.516;13.460;2022-10-15T08:56:49;14.60;99.90
32502;DHT22;18952;52.516;13.460;2022-10-15T08:59:39;14.70;99.90
32502;DHT22;18952;52.516;13.460;2022-10-15T09:02:34;14.90;99.90
32502;DHT22;18952;52.516;13.460;2022-10-15T09:13:42;15.00;99.90
32502;DHT22;18952;52.516;13.460;2022-10-15T09:16:18;15.10;99.90
32502;DHT22;18952;52.516;13.460;2022-10-15T09:18:48;15.10;99.90
32502;DHT22;18952;52.516;13.460;2022-10-15T09:21:15;15.20;99.90
32502;DHT22;18952;52.516;13.460;2022-10-15T09:23:42;15.40;99.90
32502;DHT22;18952;52.516;13.460;2022-10-15T09:31:42;15.60;99.90
32502;DHT22;18952;52.516;13.460;2022-10-15T09:34:21;15.70;99.90
32502;DHT22;18952;52.516;13.460;2022-10-15T09:36:57;15.80;99.90
32502;DHT22;18952;52.516;13.460;2022-10-15T09:40:12;15.80;99.90
32502;DHT22;18952;52.516;13.460;2022-10-15T09:42:34;15.80;99.90
32502;DHT22;18952;52.516;13.460;2022-10-15T09:45:05;15.80;99.90
32502;DHT22;18952;52.516;13.460;2022-10-15T09:47:34;15.90;99.90
32502;DHT22;18952;52.516;13.460;2022-10-15T09:50:06;16.00;99.90
32502;DHT22;18952;52.516;13.460;2022-10-15T09:55:41;16.20;99.90
32502;DHT22;18952;52.516;13.460;2022-10-15T09:58:24;16.20;99.90
32502;DHT22;18952;52.516;13.460;2022-10-15T10:03:25;16.20;99.90
32502;DHT22;18952;52.516;13.460;2022-10-15T10:06:12;16.30;99.90
32502;DHT22;18952;52.516;13.460;2022-10-15T10:11:19;16.20;99.90
32502;DHT22;18952;52.516;13.460;2022-10-15T10:16:16;16.20;99.90
32502;DHT22;18952;52.516;13.460;2022-10-15T10:18:44;16.30;99.90
32502;DHT22;18952;52.516;13.460;2022-10-15T10:21:33;16.40;99.90
32502;DHT22;18952;52.516;13.460;2022-10-15T10:26:51;16.50;99.90
32502;DHT22;18952;52.516;13.460;2022-10-15T10:29:19;16.60;99.90
32502;DHT22;18952;52.516;13.460;2022-10-15T10:32:20;16.60;99.90
32502;DHT22;18952;52.516;13.460;2022-10-15T10:34:47;16.70;99.90
32502;DHT22;18952;52.516;13.460;2022-10-15T10:37:18;16.70;99.90
32502;DHT22;18952;52.516;13.460;2022-10-15T10:39:45;16.80;99.90
32502;DHT22;18952;52.516;13.460;2022-10-15T10:44:43;16.90;99.90
32502;DHT22;18952;52.516;13.460;2022-10-15T10:47:13;16.90;99.90
32502;DHT22;18952;52.516;13.460;2022-10-15T10:50:00;16.90;99.90
32502;DHT22;18952;52.516;13.460;2022-10-15T10:52:34;16.90;99.90
32502;DHT22;18952;52.516;13.460;2022-10-15T10:55:19;17.00;99.90
32502;DHT22;18952;52.516;13.460;2022-10-15T10:57:54;17.10;99.90
32502;DHT22;18952;52.516;13.460;2022-10-15T11:00:47;17.10;99.90
32502;DHT22;18952;52.516;13.460;2022-10-15T11:05:49;17.30;99.90
32502;DHT22;18952;52.516;13.460;2022-10-15T11:08:31;17.30;99.90
32502;DHT22;18952;52.516;13.460;2022-10-15T11:14:16;17.30;99.90
32502;DHT22;18952;52.516;13.460;2022-10-15T11:23:01;17.40;99.90
32502;DHT22;18952;52.516;13.460;2022-10-15T11:31:46;17.60;99.90
32502;DHT22;18952;52.516;13.460;2022-10-15T11:40:28;17.50;99.90
32502;DHT22;18952;52.516;13.460;2022-10-15T11:43:01;17.40;99.90
32502;DHT22;18952;52.516;13.460;2022-10-15T11:45:51;17.40;99.90
32502;DHT22;18952;52.516;13.460;2022-10-15T11:52:13;17.50;99.90
32502;DHT22;18952;52.516;13.460;2022-10-15T11:57:34;17.60;99.90
32502;DHT22;18952;52.516;13.460;2022-10-15T12:00:14;17.50;99.90
32502;DHT22;18952;52.516;13.460;2022-10-15T12:02:58;17.50;99.90
32502;DHT22;18952;52.516;13.460;2022-10-15T12:05:40;17.50;99.90
32502;DHT22;18952;52.516;13.460;2022-10-15T12:08:09;17.60;99.90
32502;DHT22;18952;52.516;13.460;2022-10-15T12:10:52;17.60;99.90
32502;DHT22;18952;52.516;13.460;2022-10-15T12:13:33;17.60;99.90
32502;DHT22;18952;52.516;13.460;2022-10-15T12:21:43;17.70;99.90
32502;DHT22;18952;52.516;13.460;2022-10-15T12:24:51;17.80;99.90
32502;DHT22;18952;52.516;13.460;2022-10-15T12:32:28;17.90;99.90
32502;DHT22;18952;52.516;13.460;2022-10-15T12:34:57;18.00;99.90
32502;DHT22;18952;52.516;13.460;2022-10-15T12:37:30;18.00;99.90
32502;DHT22;18952;52.516;13.460;2022-10-15T12:40:00;18.00;99.90
32502;DHT22;18952;52.516;13.460;2022-10-15T12:42:34;17.90;99.90
32502;DHT22;18952;52.516;13.460;2022-10-15T12:45:05;17.80;99.90
32502;DHT22;18952;52.516;13.460;2022-10-15T12:50:34;17.70;99.90
32502;DHT22;18952;52.516;13.460;2022-10-15T12:53:04;17.70;99.90
32502;DHT22;18952;52.516;13.460;2022-10-15T12:55:39;17.80;99.90
32502;DHT22;18952;52.516;13.460;2022-10-15T12:58:31;17.80;99.90
32502;DHT22;18952;52.516;13.460;2022-10-15T13:11:30;18.00;99.90
32502;DHT22;18952;52.516;13.460;2022-10-15T13:16:47;17.90;99.90
32502;DHT22;18952;52.516;13.460;2022-10-15T13:19:30;17.90;99.90
32502;DHT22;18952;52.516;13.460;2022-10-15T13:22:03;17.90;99.90
32502;DHT22;18952;52.516;13.460;2022-10-15T13:24:40;17.80;99.90
32502;DHT22;18952;52.516;13.460;2022-10-15T13:27:23;17.70;99.90
32502;DHT22;18952;52.516;13.460;2022-10-15T13:30:01;17.70;99.90
32502;DHT22;18952;52.516;13.460;2022-10-15T13:32:31;17.70;99.90
32502;DHT22;18952;52.516;13.460;2022-10-15T13:34:59;17.70;99.90
32502;DHT22;18952;52.516;13.460;2022-10-15T13:37:30;17.80;99.90
32502;DHT22;18952;52.516;13.460;2022-10-15T13:39:58;17.70;99.90
32502;DHT22;18952;52.516;13.460;2022-10-15T13:42:31;17.60;99.90
32502;DHT22;18952;52.516;13.460;2022-10-15T13:44:59;17.60;99.90
32502;DHT22;18952;52.516;13.460;2022-10-15T13:52:56;17.50;99.90
32502;DHT22;18952;52.516;13.460;2022-10-15T13:55:28;17.50;99.90
32502;DHT22;18952;52.516;13.460;2022-10-15T13:58:03;17.40;99.90
32502;DHT22;18952;52.516;13.460;2022-10-15T14:00:33;17.30;99.90
32502;DHT22;18952;52.516;13.460;2022-10-15T14:03:22;17.40;99.90
32502;DHT22;18952;52.516;13.460;2022-10-15T14:05:51;17.50;99.90
32502;DHT22;18952;52.516;13.460;2022-10-15T14:08:24;17.50;99.90
32502;DHT22;18952;52.516;13.460;2022-10-15T14:10:54;17.50;99.90
32502;DHT22;18952;52.516;13.460;2022-10-15T14:13:22;17.50;99.90
32502;DHT22;18952;52.516;13.460;2022-10-15T14:18:55;17.90;99.90
32502;DHT22;18952;52.516;13.460;2022-10-15T14:21:24;18.10;99.90
32502;DHT22;18952;52.516;13.460;2022-10-15T14:23:52;18.20;99.90
32502;DHT22;18952;52.516;13.460;2022-10-15T14:26:27;18.10;99.90
32502;DHT22;18952;52.516;13.460;2022-10-15T14:28:54;18.00;99.90
32502;DHT22;18952;52.516;13.460;2022-10-15T14:31:36;17.80;99.90
32502;DHT22;18952;52.516;13.460;2022-10-15T14:34:03;17.70;99.90
32502;DHT22;18952;52.516;13.460;2022-10-15T14:36:39;17.60;99.90
32502;DHT22;18952;52.516;13.460;2022-10-15T14:39:40;17.60;99.90
32502;DHT22;18952;52.516;13.460;2022-10-15T14:42:26;17.50;99.90
32502;DHT22;18952;52.516;13.460;2022-10-15T14:44:53;17.50;99.90
32502;DHT22;18952;52.516;13.460;2022-10-15T14:47:22;17.50;99.90
32502;DHT22;18952;52.516;13.460;2022-10-15T14:49:53;17.70;99.90
32502;DHT22;18952;52.516;13.460;2022-10-15T14:52:21;18.00;99.90
32502;DHT22;18952;52.516;13.460;2022-10-15T14:57:43;18.40;99.90
32502;DHT22;18952;52.516;13.460;2022-10-15T15:02:49;18.50;99.90
32502;DHT22;18952;52.516;13.460;2022-10-15T15:05:20;18.50;99.90
32502;DHT22;18952;52.516;13.460;2022-10-15T15:07:47;18.40;99.90
32502;DHT22;18952;52.516;13.460;2022-10-15T15:10:14;18.40;99.90
32502;DHT22;18952;52.516;13.460;2022-10-15T15:12:46;18.40;99.90
32502;DHT22;18952;52.516;13.460;2022-10-15T15:15:15;18.40;99.90
32502;DHT22;18952;52.516;13.460;2022-10-15T15:17:42;18.40;99.90
32502;DHT22;18952;52.516;13.460;2022-10-15T15:20:10;18.30;99.90
32502;DHT22;18952;52.516;13.460;2022-10-15T15:22:37;18.20;99.90
32502;DHT22;18952;52.516;13.460;2022-10-15T15:25:34;18.00;99.90
32502;DHT22;18952;52.516;13.460;2022-10-15T15:28:02;17.90;99.90
32502;DHT22;18952;52.516;13.460;2022-10-15T15:30:30;17.70;99.90
32502;DHT22;18952;52.516;13.460;2022-10-15T15:32:57;17.60;99.90
32502;DHT22;18952;52.516;13.460;2022-10-15T15:35:41;17.50;99.90
32502;DHT22;18952;52.516;13.460;2022-10-15T15:38:10;17.40;99.90
32502;DHT22;18952;52.516;13.460;2022-10-15T15:40:38;17.30;99.90
32502;DHT22;18952;52.516;13.460;2022-10-15T15:43:05;17.30;99.90
32502;DHT22;18952;52.516;13.460;2022-10-15T15:45:33;17.20;99.90
32502;DHT22;18952;52.516;13.460;2022-10-15T15:48:03;17.10;99.90
32502;DHT22;18952;52.516;13.460;2022-10-15T15:50:34;17.00;99.90
32502;DHT22;18952;52.516;13.460;2022-10-15T15:53:03;16.90;99.90
32502;DHT22;18952;52.516;13.460;2022-10-15T15:55:42;16.90;99.90
32502;DHT22;18952;52.516;13.460;2022-10-15T15:58:13;16.80;99.90
32502;DHT22;18952;52.516;13.460;2022-10-15T16:00:39;16.70;99.90
32502;DHT22;18952;52.516;13.460;2022-10-15T16:03:13;16.60;99.90
32502;DHT22;18952;52.516;13.460;2022-10-15T16:05:41;16.60;99.90
32502;DHT22;18952;52.516;13.460;2022-10-15T16:08:09;16.50;99.90
32502;DHT22;18952;52.516;13.460;2022-10-15T16:10:37;16.50;99.90
32502;DHT22;18952;52.516;13.460;2022-10-15T16:13:07;16.40;99.90
32502;DHT22;18952;52.516;13.460;2022-10-15T16:15:35;16.30;99.90
32502;DHT22;18952;52.516;13.460;2022-10-15T16:18:05;16.20;99.90
32502;DHT22;18952;52.516;13.460;2022-10-15T16:20:36;16.20;99.90
32502;DHT22;18952;52.516;13.460;2022-10-15T16:23:14;16.10;99.90
32502;DHT22;18952;52.516;13.460;2022-10-15T16:25:42;16.00;99.90
32502;DHT22;18952;52.516;13.460;2022-10-15T16:28:09;16.00;99.90
32502;DHT22;18952;52.516;13.460;2022-10-15T16:30:36;15.90;99.90
32502;DHT22;18952;52.516;13.460;2022-10-15T16:33:02;15.80;99.90
32502;DHT22;18952;52.516;13.460;2022-10-15T16:35:29;15.80;99.90
32502;DHT22;18952;52.516;13.460;2022-10-15T16:37:56;15.70;99.90
32502;DHT22;18952;52.516;13.460;2022-10-15T16:40:23;15.70;99.90
32502;DHT22;18952;52.516;13.460;2022-10-15T16:42:49;15.60;99.90
32502;DHT22;18952;52.516;13.460;2022-10-15T16:45:16;15.60;99.90
32502;DHT22;18952;52.516;13.460;2022-10-15T16:47:43;15.50;99.90
32502;DHT22;18952;52.516;13.460;2022-10-15T16:50:09;15.40;99.90
32502;DHT22;18952;52.516;13.460;2022-10-15T16:52:38;15.40;99.90
32502;DHT22;18952;52.516;13.460;2022-10-15T16:55:07;15.40;99.90
32502;DHT22;18952;52.516;13.460;2022-10-15T16:57:35;15.30;99.90
32502;DHT22;18952;52.516;13.460;2022-10-15T17:00:06;15.30;99.90
32502;DHT22;18952;52.516;13.460;2022-10-15T17:02:32;15.20;99.90
32502;DHT22;18952;52.516;13.460;2022-10-15T17:04:59;15.20;99.90
32502;DHT22;18952;52.516;13.460;2022-10-15T17:07:26;15.10;99.90
32502;DHT22;18952;52.516;13.460;2022-10-15T17:09:53;15.10;99.90
32502;DHT22;18952;52.516;13.460;2022-10-15T17:12:19;15.10;99.90
32502;DHT22;18952;52.516;13.460;2022-10-15T17:14:49;15.00;99.90
32502;DHT22;18952;52.516;13.460;2022-10-15T17:17:16;15.00;99.90
32502;DHT22;18952;52.516;13.460;2022-10-15T17:19:43;14.90;99.90
32502;DHT22;18952;52.516;13.460;2022-10-15T17:22:09;14.90;99.90
32502;DHT22;18952;52.516;13.460;2022-10-15T17:24:36;14.80;99.90
32502;DHT22;18952;52.516;13.460;2022-10-15T17:27:04;14.80;99.90
32502;DHT22;18952;52.516;13.460;2022-10-15T17:29:30;14.80;99.90
32502;DHT22;18952;52.516;13.460;2022-10-15T17:32:00;14.80;99.90
32502;DHT22;18952;52.516;13.460;2022-10-15T17:34:27;14.70;99.90
32502;DHT22;18952;52.516;13.460;2022-10-15T17:36:53;14.70;99.90